Metar z pełnej godziny Komunikat METAR ze strony awiacja.imgw.pl Metar G00 EPSC METAR EPSC 231300Z 32013KT 9999 SCT040CB 18/13 Q1009 =